13347/Palamu Express
     पलामू एक्सप्रेस

Time-Table CHANGES effective Aug 15, 2018
Comparison of Old and New Time-Tables

WARNING: NOT RUNNING. ONLY Covid Special Trains are running during the Pandemic.


OLD TIME-TABLE

Travel Time: 14h 0m    30 halts    Distance: 493 km    Avg Speed: 35 km/hr
Type: Mail/Express
Zone: ECR/East Central
Departs @ 18:10
Platform# ???
SMTWTFS
Barkakana Junction/BRKA 
Arrives @ 08:10 +1 night
Platform# ???
SMTWTFS
Patna Junction/PNBE 

30 halts. 91 intermediate Stations between Barkakana Junction and Patna Junction

#TrkCodeStation NameArrivesDepartsHaltPFDay#KmSpeedElevZoneAddress
1|--|BRKABarkakana Junction»  18:10--10.061 ECRPH - 0653-255225, Jharkhand
2|--|BHKDBhurkunda  18:20 18:2118:22 18:232m--110.162363mECR829105, Jharkhand
3|--|PTRUPatratu  18:30 18:3318:32 18:352m--118.480372mECRPin - 829118, Jharkhand
4|--|RAYRay  18:54 19:0318:56 19:052m--147.652441mECRray, Jharkhand
5|--|KLREKhalari  19:04 19:1519:06 19:172m--154.542460mECRPin - 829205, Jharkhand
6|--|MGMEMcCluskieGanj  19:15 19:2619:17 19:282m--160.877476mECRPin - 829208, Jharkhand
7|--|TORITori Junction  19:34 19:4819:36 19:502m--182.778517mECRPincode :- 829203, Jharkhand
8|--|LTHRLatehar  20:01 20:1820:03 20:202m--1115.383381mECR829207, Jharkhand
9|--|CPDRChhipadohar  20:26 20:4620:28 20:482m--1147.242338mECRDist Latehar 829204, Jharkhand
10|--|BRWDBarwadih Junction  20:40 21:0020:45 21:055m--1155.775296mECR822111, Jharkhand
11|--|KCKIKechki  20:55 21:1820:57 21:202m--1168.263249mECRKechki, Jharkhand
12|--|DTODaltonGanj  21:11 22:2021:16 22:225 2m--1182.918234mECR230812, Jharkhand
13|--|GHDGarhwa Road Junction23:0523:3530m--1216.370 ECRPalamu Pn. no - 06584-262777, Jharkhand
14|--|URDUntari Road  23:49 23:4823:50 23:491m--1232.659 ECRPalamu, Jharkhand
15|--|MDJMohammad Ganj  00:02 00:0100:03 00:021m--2244.455 ECRJharkhand, Jharkhand
16|--|HDNHaidar Nagar  00:16 00:1300:17 00:141m--2256.353 ECRPalamu, Jharkhand
17|--|JPLJapla  00:25 00:2200:26 00:231m--2263.373149mECRDistt. Palamau 822116, Jharkhand
18|--|NBGNabinagar Road  00:39 00:3600:40 00:371m--2279.265 ECR824303, Bihar
19|--|ANHAnkorha  00:53 00:4900:54 00:501m--2293.364 ECRPin - 824101, Bihar
20|--|SEBSon Nagar Junction  01:09 01:1101:10 01:131 2m--2309.435 ECRPin - 824112, Bihar
21|--|DOSDehri On Sone  01:20 01:2501:45 01:5025m--2315.176 ECRPhone - (06184-253154), Bihar
22|--|AUBRAnugraha Narayan Road  01:58 02:0201:59 02:041 2m--2331.775 ECR06186-285271, Bihar
23|--|JHNJakhim  02:15 02:2002:16 02:211m--2351.760 ECRbel Rd, Bihar
24|--|RFJRafiGanj  02:27 02:3202:28 02:331m--2362.674 ECRRafiganj, Bihar
25|--|GRRUGuraru  02:41 02:4602:42 02:471m--2378.79 ECR824118, Bihar
26|--|GAYAGaya Junction  05:10 05:1505:2010 5m--2400.370 ECR0631-2220283, Bihar
27|--|BELABela  05:37 05:3805:39 05:402m--2420.05593mECRGaya, Bihar
28|--|MDEMakhdumpur Gaya  05:5105:532m--2431.05577mECRJehanabad, Bihar
29|--|JHDJehanabad  06:1106:165m--2447.58468mECRJehanabad, Bihar
30|--|TEATaregna  06:27 06:3006:29 06:322m--2462.92962mECRBihar - 804452, Bihar
31|--|PPNPunpun  07:03 06:5307:05 06:552m--2479.21258mECR804453, Bihar
32|--|PNBEPatna Junction•  08:10 07:45--2492.5- ECRPatna 800001, Bihar


NEW TIME-TABLE

The Shortest Route between Barkakana Jn and Patna Jn is 187 km (38%) shorter.
Travel Time: 13h 35m    30 halts    Distance: 492 km    Avg Speed: 36 km/hr
Max Permissible Speed: 110 km/hr between LTHR/Latehar and GAYA/Gaya Junction
Type: Mail/Express
Rake Zone: ECR/East Central
Departs @ 18:10
Platform# 3
SMTWTFS
BRKA/Barkakana Jn 
Arrives @ 07:45 +1 night
Platform# 9
SMTWTFS
PNBE/Patna Jn 

NEW TT effective Jun 30, 2019.

30 halts. 92 intermediate Stations between Barkakana Junction and Patna Junction

#TrkCodeStation NameArrivesDepartsHaltPFDay#KmSpeedElevZoneAddress
1%==%BRKABarkakana Junction»  18:10310.055 ECRPH - 0653-255225, Jharkhand
2/==/BHKDBhurkunda  18:20 18:2118:22 18:232m1110.150363mECR829105, Jharkhand
3/==/PTRUPatratu  18:30 18:3318:32 18:352m1118.463372mECRPin - 829118, Jharkhand
4/==/RAYRay  18:54 19:0318:56 19:052m1147.641441mECRray, Jharkhand
5/==/KLREKhalari  19:04 19:1519:06 19:172m1154.542460mECRPin - 829205, Jharkhand
6/==/MGMEMcCluskieGanj  19:15 19:2619:17 19:282m1160.866476mECRPin - 829208, Jharkhand
7/==/TORITori Junction  19:34 19:4819:36 19:502m2182.770517mECRPincode :- 829203, Jharkhand
8/==/LTHRLatehar  20:01 20:1820:03 20:202m21115.374381mECR829207, Jharkhand
9/==/CPDRChhipadohar  20:26 20:4620:28 20:482m11147.242338mECRDist Latehar 829204, Jharkhand
10/==/BRWDBarwadih Junction  20:40 21:0020:45 21:055m11155.758296mECR822111, Jharkhand
11/==/KCKIKechki  20:55 21:1820:57 21:202m01168.215249mECRKechki, Jharkhand
12/==/DTODaltonGanj  21:11 22:2021:16 22:225 2m11182.947234mECR230812, Jharkhand
13/==/GHDGarhwa Road Junction23:0523:3530m11216.375 ECRPalamu Pn. no - 06584-262777, Jharkhand
14/==/URDUntari Road  23:49 23:4823:50 23:491m11232.659 ECRPalamu, Jharkhand
15/==/MDJMohammad Ganj  00:02 00:0100:03 00:021m22244.465 ECRJharkhand, Jharkhand
16/==/HDNHaidar Nagar  00:16 00:1300:17 00:141m22256.353 ECRPalamu, Jharkhand
17/==/JPLJapla  00:25 00:2200:26 00:231m02263.373149mECRDistt. Palamau 822116, Jharkhand
18/==/NBGNabinagar Road  00:39 00:3600:40 00:371m02279.270 ECR824303, Bihar
19/==/ANHAnkorha  00:53 00:4900:54 00:501m02293.346 ECRPin - 824101, Bihar
20/==/SEBSon Nagar Junction  01:09 01:1101:10 01:131 2m--2309.428 ECRPin - 824112, Bihar
21/==/DOSDehri On Sone01:20 01:2501:45 01:5025m52315.082 ECRPhone - (06184-253154), Bihar
22/==/AUBRAnugraha Narayan Road  01:58 02:0201:59 02:041 2m32331.475 ECR06186-285271, Bihar
23/==/JHNJakhim  02:15 02:2002:16 02:211m22351.560 ECRbel Rd, Bihar
24/==/RFJRafiGanj  02:27 02:3202:28 02:331m32362.474 ECRRafiganj, Bihar
25/==/GRRUGuraru  02:41 02:4602:42 02:471m22378.59 ECR824118, Bihar
26/==/GAYAGaya Junction  05:10 05:1505:2010 5m5,62400.066 ECR0631-2220283, Bihar
27/==/BELABela  05:37 05:3805:39 05:402m12419.76093mECRGaya, Bihar
28/==/MDEMakhdumpur Gaya  05:5105:532m22430.75577mECRJehanabad, Bihar
29/==/JHDJehanabad  06:1106:165m22447.36668mECRJehanabad, Bihar
30/==/TEATaregna  06:27 06:3006:29 06:322m12462.64762mECRBihar - 804452, Bihar